Time,TemperatureF,DewpointF,PressureIn,WindDirection,WindDirectionDegrees,WindSpeedMPH,WindSpeedGustMPH,Humidity,HourlyPrecipIn,Conditions,Clouds,dailyrainin,SoftwareType,DateUTC
2013-01-11 00:05:00,26.5,23.7,30.46,SE,145,0.0,0.0,89,0.00,,,0.00,VWS V14.00,2013-01-11 05:05:00,
2013-01-11 00:08:00,26.5,23.7,30.46,SE,145,0.0,0.0,89,0.00,,,0.00,VWS V14.00,2013-01-11 05:08:00,
2013-01-11 00:14:00,26.5,23.8,30.47,SE,145,0.0,0.0,89,0.00,,,0.00,VWS V14.00,2013-01-11 05:14:00,
2013-01-11 00:17:00,26.4,23.7,30.47,SE,145,0.0,0.0,89,0.00,,,0.00,VWS V14.00,2013-01-11 05:17:00,
2013-01-11 00:23:00,26.4,23.8,30.46,SE,145,0.0,0.0,90,0.00,,,0.00,VWS V14.00,2013-01-11 05:23:00,
2013-01-11 00:29:00,26.3,23.7,30.46,SE,145,0.0,0.0,90,0.00,,,0.00,VWS V14.00,2013-01-11 05:29:00,
2013-01-11 00:35:00,26.2,23.6,30.46,SE,145,0.0,0.0,90,0.00,,,0.00,VWS V14.00,2013-01-11 05:35:00,
2013-01-11 00:41:00,25.9,23.4,30.46,SE,145,0.0,0.0,90,0.00,,,0.00,VWS V14.00,2013-01-11 05:41:00,
2013-01-11 00:47:00,26.2,23.8,30.45,SE,145,0.0,0.0,90,0.00,,,0.00,VWS V14.00,2013-01-11 05:47:00,
2013-01-11 00:53:00,26.1,23.6,30.45,SE,145,0.0,0.0,90,0.00,,,0.00,VWS V14.00,2013-01-11 05:53:00,
2013-01-11 00:59:00,26.0,23.5,30.45,SE,145,0.0,0.0,90,0.00,,,0.00,VWS V14.00,2013-01-11 05:59:00,
2013-01-11 01:05:00,25.9,23.5,30.44,SE,145,0.0,0.0,90,0.00,,,0.00,VWS V14.00,2013-01-11 06:05:00,
2013-01-11 01:11:00,25.8,23.4,30.44,SE,145,0.0,0.0,90,0.00,,,0.00,VWS V14.00,2013-01-11 06:11:00,
2013-01-11 01:17:00,25.6,23.2,30.43,SE,145,0.0,0.0,90,0.00,,,0.00,VWS V14.00,2013-01-11 06:17:00,
2013-01-11 01:23:00,25.6,23.3,30.41,SSE,166,4.5,5.0,91,0.00,,,0.00,VWS V14.00,2013-01-11 06:23:00,
2013-01-11 01:29:00,25.4,23.1,30.41,SE,125,0.0,5.0,91,0.00,,,0.00,VWS V14.00,2013-01-11 06:29:00,
2013-01-11 01:35:00,25.4,23.1,30.41,South,169,7.3,8.1,91,0.00,,,0.00,VWS V14.00,2013-01-11 06:35:00,
2013-01-11 01:41:00,25.1,22.8,30.40,SSE,163,5.3,8.9,91,0.00,,,0.00,VWS V14.00,2013-01-11 06:41:00,
2013-01-11 01:47:00,25.0,22.8,30.40,SSE,152,0.0,8.9,91,0.00,,,0.00,VWS V14.00,2013-01-11 06:47:00,
2013-01-11 01:53:00,24.9,22.8,30.40,SSE,149,6.9,9.0,91,0.00,,,0.00,VWS V14.00,2013-01-11 06:53:00,
2013-01-11 01:59:00,25.0,22.9,30.40,SE,141,0.0,9.0,92,0.00,,,0.00,VWS V14.00,2013-01-11 06:59:00,
2013-01-11 02:05:00,24.9,22.8,30.40,SE,141,0.0,9.0,92,0.00,,,0.00,VWS V14.00,2013-01-11 07:05:00,
2013-01-11 02:11:00,25.0,23.0,30.40,SE,141,0.0,9.0,92,0.00,,,0.00,VWS V14.00,2013-01-11 07:11:00,
2013-01-11 02:17:00,25.3,23.3,30.39,SE,141,0.0,9.0,92,0.00,,,0.00,VWS V14.00,2013-01-11 07:17:00,
2013-01-11 02:23:00,25.4,23.4,30.39,SE,141,0.0,9.0,92,0.00,,,0.00,VWS V14.00,2013-01-11 07:23:00,
2013-01-11 02:29:00,25.4,23.3,30.39,SE,141,0.0,9.0,92,0.00,,,0.00,VWS V14.00,2013-01-11 07:29:00,
2013-01-11 02:35:00,25.3,23.1,30.39,SE,141,0.0,9.0,91,0.00,,,0.00,VWS V14.00,2013-01-11 07:35:00,
2013-01-11 02:41:00,25.3,23.1,30.39,SE,141,0.0,9.0,91,0.00,,,0.00,VWS V14.00,2013-01-11 07:41:00,
2013-01-11 02:47:00,25.4,23.1,30.39,SE,141,0.0,9.0,91,0.00,,,0.00,VWS V14.00,2013-01-11 07:47:00,
2013-01-11 02:53:00,25.4,23.1,30.39,SE,141,0.0,9.0,91,0.00,,,0.00,VWS V14.00,2013-01-11 07:53:00,
2013-01-11 02:59:00,25.4,23.2,30.39,SE,141,0.0,9.0,91,0.00,,,0.00,VWS V14.00,2013-01-11 07:59:00,
2013-01-11 03:05:00,25.3,23.1,30.39,SE,141,0.0,9.0,91,0.00,,,0.00,VWS V14.00,2013-01-11 08:05:00,
2013-01-11 03:11:00,25.2,23.0,30.39,SE,141,0.0,9.0,91,0.00,,,0.00,VWS V14.00,2013-01-11 08:11:00,
2013-01-11 03:17:00,25.2,22.9,30.38,SE,141,0.0,9.0,91,0.00,,,0.00,VWS V14.00,2013-01-11 08:17:00,
2013-01-11 03:23:00,25.0,22.8,30.38,SE,141,0.0,9.0,91,0.00,,,0.00,VWS V14.00,2013-01-11 08:23:00,
2013-01-11 03:29:00,24.9,22.7,30.38,SE,141,0.0,9.0,91,0.00,,,0.00,VWS V14.00,2013-01-11 08:29:00,
2013-01-11 03:35:00,24.8,22.6,30.38,SE,141,0.0,9.0,91,0.00,,,0.00,VWS V14.00,2013-01-11 08:35:00,
2013-01-11 03:41:00,24.6,22.4,30.38,SE,141,0.0,9.0,91,0.00,,,0.00,VWS V14.00,2013-01-11 08:41:00,
2013-01-11 03:47:00,24.6,22.5,30.38,SE,141,0.0,9.0,92,0.00,,,0.00,VWS V14.00,2013-01-11 08:47:00,
2013-01-11 03:53:00,24.5,22.5,30.37,SE,141,0.0,9.0,92,0.00,,,0.00,VWS V14.00,2013-01-11 08:53:00,
2013-01-11 03:59:00,24.5,22.6,30.37,SE,141,0.0,9.0,92,0.00,,,0.00,VWS V14.00,2013-01-11 08:59:00,
2013-01-11 04:05:00,24.4,22.5,30.36,SE,141,0.0,9.0,92,0.00,,,0.00,VWS V14.00,2013-01-11 09:05:00,
2013-01-11 04:12:00,24.3,22.4,30.36,SE,141,0.0,9.0,92,0.00,,,0.00,VWS V14.00,2013-01-11 09:12:00,
2013-01-11 04:18:00,24.4,22.5,30.36,SSE,153,7.5,9.0,92,0.00,,,0.00,VWS V14.00,2013-01-11 09:18:00,
2013-01-11 04:24:00,24.4,22.5,30.35,SSE,166,5.7,9.0,92,0.00,,,0.00,VWS V14.00,2013-01-11 09:24:00,
2013-01-11 04:30:00,24.4,22.5,30.36,SE,141,0.0,9.0,92,0.00,,,0.00,VWS V14.00,2013-01-11 09:30:00,
2013-01-11 04:36:00,24.4,22.6,30.36,SE,141,0.0,9.0,93,0.00,,,0.00,VWS V14.00,2013-01-11 09:36:00,
2013-01-11 04:42:00,24.6,22.8,30.36,SE,139,0.0,9.0,93,0.00,,,0.00,VWS V14.00,2013-01-11 09:42:00,
2013-01-11 04:48:00,24.9,23.1,30.37,SE,139,0.0,9.0,93,0.00,,,0.00,VWS V14.00,2013-01-11 09:48:00,
2013-01-11 04:54:00,25.1,23.3,30.37,SE,139,0.0,9.0,93,0.00,,,0.00,VWS V14.00,2013-01-11 09:54:00,
2013-01-11 05:00:00,25.2,23.4,30.37,SE,139,0.0,9.0,93,0.00,,,0.00,VWS V14.00,2013-01-11 10:00:00,
2013-01-11 05:06:00,25.1,23.2,30.37,SE,139,0.0,9.0,92,0.00,,,0.00,VWS V14.00,2013-01-11 10:06:00,
2013-01-11 05:12:00,25.0,23.2,30.36,SE,139,0.0,9.0,93,0.00,,,0.00,VWS V14.00,2013-01-11 10:12:00,
2013-01-11 05:18:00,25.2,23.3,30.36,SE,146,0.0,9.0,92,0.00,,,0.00,VWS V14.00,2013-01-11 10:18:00,
2013-01-11 05:24:00,25.2,23.3,30.36,SSE,150,4.8,9.0,92,0.00,,,0.00,VWS V14.00,2013-01-11 10:24:00,
2013-01-11 05:30:00,25.2,23.3,30.35,SSE,150,6.7,9.0,92,0.00,,,0.00,VWS V14.00,2013-01-11 10:30:00,
2013-01-11 05:36:00,25.4,23.5,30.36,SE,139,0.0,9.0,92,0.00,,,0.00,VWS V14.00,2013-01-11 10:36:00,
2013-01-11 05:42:00,25.4,23.5,30.36,SSE,148,0.0,9.0,92,0.00,,,0.00,VWS V14.00,2013-01-11 10:42:00,
2013-01-11 05:48:00,25.7,23.8,30.36,ESE,121,0.0,9.0,92,0.00,,,0.00,VWS V14.00,2013-01-11 10:48:00,
2013-01-11 05:54:00,25.9,24.0,30.36,SSE,155,0.0,9.0,92,0.00,,,0.00,VWS V14.00,2013-01-11 10:54:00,
2013-01-11 06:00:00,26.1,24.1,30.36,SE,145,0.0,9.0,92,0.00,,,0.00,VWS V14.00,2013-01-11 11:00:00,
2013-01-11 06:06:00,26.0,24.0,30.36,SE,145,0.0,9.0,92,0.00,,,0.00,VWS V14.00,2013-01-11 11:06:00,
2013-01-11 06:12:00,26.2,24.1,30.36,SE,145,0.0,9.0,92,0.00,,,0.00,VWS V14.00,2013-01-11 11:12:00,
2013-01-11 06:18:00,26.2,24.1,30.36,SE,145,0.0,9.0,92,0.00,,,0.00,VWS V14.00,2013-01-11 11:18:00,
2013-01-11 06:24:00,26.3,24.2,30.37,SE,145,0.0,9.0,92,0.00,,,0.00,VWS V14.00,2013-01-11 11:24:00,
2013-01-11 06:30:00,26.3,24.1,30.36,SE,145,0.0,9.0,91,0.00,,,0.00,VWS V14.00,2013-01-11 11:30:00,
2013-01-11 06:36:00,26.4,24.2,30.36,SSE,150,3.0,9.0,91,0.00,,,0.00,VWS V14.00,2013-01-11 11:36:00,
2013-01-11 06:42:00,26.3,24.1,30.35,SSE,158,6.1,9.0,91,0.00,,,0.00,VWS V14.00,2013-01-11 11:42:00,
2013-01-11 06:48:00,26.2,24.0,30.35,SSE,163,5.7,9.0,91,0.00,,,0.00,VWS V14.00,2013-01-11 11:48:00,
2013-01-11 06:54:00,26.1,23.9,30.35,SE,128,3.4,9.1,91,0.00,,,0.00,VWS V14.00,2013-01-11 11:54:00,
2013-01-11 07:00:00,26.1,23.9,30.35,SSE,152,6.0,9.1,91,0.00,,,0.00,VWS V14.00,2013-01-11 12:00:00,
2013-01-11 07:06:00,26.2,24.0,30.34,SE,145,6.0,9.3,91,0.00,,,0.00,VWS V14.00,2013-01-11 12:06:00,
2013-01-11 07:12:00,26.2,24.1,30.34,SSE,148,3.3,9.4,92,0.00,,,0.00,VWS V14.00,2013-01-11 12:12:00,
2013-01-11 07:18:00,26.4,24.3,30.34,South,173,0.0,9.4,92,0.00,,,0.00,VWS V14.00,2013-01-11 12:18:00,
2013-01-11 07:24:00,26.5,24.3,30.34,SSE,162,5.6,9.4,91,0.00,,,0.00,VWS V14.00,2013-01-11 12:24:00,
2013-01-11 07:30:00,26.7,24.5,30.35,South,172,0.0,9.4,91,0.00,,,0.00,VWS V14.00,2013-01-11 12:30:00,
2013-01-11 07:36:00,26.7,24.4,30.35,South,172,0.0,9.4,91,0.00,,,0.00,VWS V14.00,2013-01-11 12:36:00,
2013-01-11 07:42:00,26.7,24.4,30.35,South,172,0.0,9.4,91,0.00,,,0.00,VWS V14.00,2013-01-11 12:42:00,
2013-01-11 07:48:00,26.9,24.6,30.35,South,172,0.0,9.4,91,0.00,,,0.00,VWS V14.00,2013-01-11 12:48:00,
2013-01-11 07:54:00,27.1,24.8,30.35,South,172,0.0,9.4,91,0.00,,,0.00,VWS V14.00,2013-01-11 12:54:00,
2013-01-11 08:00:00,27.1,24.9,30.35,South,172,0.0,9.4,91,0.00,,,0.00,VWS V14.00,2013-01-11 13:00:00,
2013-01-11 08:06:00,27.4,25.1,30.34,South,172,0.0,9.4,91,0.00,,,0.00,VWS V14.00,2013-01-11 13:06:00,
2013-01-11 08:13:00,27.5,25.1,30.33,SSE,167,0.0,9.4,90,0.00,,,0.00,VWS V14.00,2013-01-11 13:13:00,
2013-01-11 08:19:00,27.7,25.2,30.33,SE,132,7.5,9.4,90,0.00,,,0.00,VWS V14.00,2013-01-11 13:19:00,
2013-01-11 08:25:00,27.9,25.2,30.33,SSE,152,6.4,9.6,89,0.00,,,0.00,VWS V14.00,2013-01-11 13:25:00,
2013-01-11 08:31:00,28.1,25.2,30.33,SE,138,5.1,9.6,89,0.00,,,0.00,VWS V14.00,2013-01-11 13:31:00,
2013-01-11 08:37:00,28.4,25.4,30.33,SE,125,0.0,9.6,88,0.00,,,0.00,VWS V14.00,2013-01-11 13:37:00,
2013-01-11 08:43:00,28.5,25.4,30.33,SE,141,0.0,9.6,88,0.00,,,0.00,VWS V14.00,2013-01-11 13:43:00,
2013-01-11 08:49:00,28.7,25.5,30.32,SE,136,0.0,9.6,88,0.00,,,0.00,VWS V14.00,2013-01-11 13:49:00,
2013-01-11 08:55:00,28.9,25.5,30.32,ESE,117,0.0,9.6,87,0.00,,,0.00,VWS V14.00,2013-01-11 13:55:00,
2013-01-11 09:01:00,29.1,25.5,30.32,ESE,117,0.0,9.6,86,0.00,,,0.00,VWS V14.00,2013-01-11 14:01:00,
2013-01-11 09:07:00,29.4,25.7,30.31,ESE,117,0.0,9.6,86,0.00,,,0.00,VWS V14.00,2013-01-11 14:07:00,
2013-01-11 09:13:00,29.7,25.9,30.31,SSE,153,5.2,9.6,86,0.00,,,0.00,VWS V14.00,2013-01-11 14:13:00,
2013-01-11 09:19:00,29.8,25.7,30.29,SE,143,0.0,9.6,85,0.00,,,0.00,VWS V14.00,2013-01-11 14:19:00,
2013-01-11 09:25:00,30.1,25.7,30.29,SSE,148,0.0,9.6,83,0.00,,,0.00,VWS V14.00,2013-01-11 14:25:00,
2013-01-11 09:31:00,30.4,25.7,30.30,SSE,148,0.0,9.6,82,0.00,,,0.00,VWS V14.00,2013-01-11 14:31:00,
2013-01-11 09:37:00,30.7,26.0,30.30,SSE,148,0.0,9.6,82,0.00,,,0.00,VWS V14.00,2013-01-11 14:37:00,
2013-01-11 09:43:00,31.1,26.4,30.31,SSE,148,0.0,9.6,82,0.00,,,0.00,VWS V14.00,2013-01-11 14:43:00,
2013-01-11 09:49:00,31.2,26.1,30.31,SSE,148,0.0,9.6,81,0.00,,,0.00,VWS V14.00,2013-01-11 14:49:00,
2013-01-11 09:55:00,31.3,26.0,30.31,SSE,148,0.0,9.6,80,0.00,,,0.00,VWS V14.00,2013-01-11 14:55:00,
2013-01-11 10:01:00,31.5,26.3,30.30,SSE,148,0.0,9.6,81,0.00,,,0.00,VWS V14.00,2013-01-11 15:01:00,
2013-01-11 10:07:00,31.7,26.8,30.29,SSE,148,0.0,9.6,82,0.00,,,0.00,VWS V14.00,2013-01-11 15:07:00,
2013-01-11 10:13:00,32.0,26.9,30.28,ESE,122,0.0,9.6,81,0.00,,,0.00,VWS V14.00,2013-01-11 15:13:00,
2013-01-11 10:19:00,32.2,26.5,30.28,SSE,158,6.6,9.6,79,0.00,,,0.00,VWS V14.00,2013-01-11 15:19:00,
2013-01-11 10:25:00,32.4,26.3,30.27,SE,135,2.9,9.6,78,0.00,,,0.00,VWS V14.00,2013-01-11 15:25:00,
2013-01-11 10:31:00,32.8,26.5,30.27,East,86,0.0,9.6,77,0.00,,,0.00,VWS V14.00,2013-01-11 15:31:00,
2013-01-11 10:37:00,33.1,26.6,30.27,East,86,0.0,9.6,77,0.00,,,0.00,VWS V14.00,2013-01-11 15:37:00,
2013-01-11 10:43:00,33.5,26.8,30.27,East,86,0.0,9.6,76,0.00,,,0.00,VWS V14.00,2013-01-11 15:43:00,
2013-01-11 10:49:00,33.9,26.4,30.26,East,86,0.0,9.6,74,0.00,,,0.00,VWS V14.00,2013-01-11 15:49:00,
2013-01-11 10:55:00,34.6,26.3,30.26,East,86,0.0,9.6,71,0.00,,,0.00,VWS V14.00,2013-01-11 15:55:00,
2013-01-11 11:01:00,35.1,26.3,30.26,East,86,0.0,9.6,70,0.00,,,0.00,VWS V14.00,2013-01-11 16:01:00,
2013-01-11 11:07:00,35.6,27.4,30.25,East,86,0.0,9.6,72,0.00,,,0.00,VWS V14.00,2013-01-11 16:07:00,
2013-01-11 11:13:00,35.9,27.1,30.25,East,86,0.0,9.6,70,0.00,,,0.00,VWS V14.00,2013-01-11 16:13:00,
2013-01-11 11:19:00,36.3,27.1,30.26,East,86,0.0,9.6,69,0.00,,,0.00,VWS V14.00,2013-01-11 16:19:00,
2013-01-11 11:25:00,36.5,26.9,30.26,East,86,0.0,9.6,68,0.00,,,0.00,VWS V14.00,2013-01-11 16:25:00,
2013-01-11 11:31:00,36.7,26.7,30.26,East,86,0.0,9.6,67,0.00,,,0.00,VWS V14.00,2013-01-11 16:31:00,
2013-01-11 11:37:00,36.8,26.6,30.25,East,86,0.0,9.6,66,0.00,,,0.00,VWS V14.00,2013-01-11 16:37:00,
2013-01-11 11:43:00,37.3,26.6,30.26,East,86,0.0,9.6,65,0.00,,,0.00,VWS V14.00,2013-01-11 16:43:00,
2013-01-11 11:49:00,37.7,26.4,30.26,East,86,0.0,9.6,63,0.00,,,0.00,VWS V14.00,2013-01-11 16:49:00,
2013-01-11 11:55:00,37.8,26.0,30.25,East,86,0.0,9.6,62,0.00,,,0.00,VWS V14.00,2013-01-11 16:55:00,
2013-01-11 12:01:00,37.9,25.6,30.24,East,86,0.0,9.6,61,0.00,,,0.00,VWS V14.00,2013-01-11 17:01:00,
2013-01-11 12:07:00,37.9,25.0,30.23,East,86,0.0,9.6,59,0.00,,,0.00,VWS V14.00,2013-01-11 17:07:00,
2013-01-11 12:13:00,38.1,24.9,30.23,East,86,0.0,9.6,58,0.00,,,0.00,VWS V14.00,2013-01-11 17:13:00,
2013-01-11 12:19:00,38.0,24.7,30.23,East,86,0.0,9.6,58,0.00,,,0.00,VWS V14.00,2013-01-11 17:19:00,
2013-01-11 12:25:00,38.2,25.5,30.21,East,86,0.0,9.6,60,0.00,,,0.00,VWS V14.00,2013-01-11 17:25:00,
2013-01-11 12:31:00,38.3,25.7,30.21,SE,129,0.0,9.6,60,0.00,,,0.00,VWS V14.00,2013-01-11 17:31:00,
2013-01-11 12:38:00,38.6,25.0,30.20,SE,124,0.0,9.6,58,0.00,,,0.00,VWS V14.00,2013-01-11 17:38:00,
2013-01-11 12:44:00,38.9,24.4,30.20,SE,124,0.0,9.6,56,0.00,,,0.00,VWS V14.00,2013-01-11 17:44:00,
2013-01-11 12:50:00,39.0,23.7,30.21,SE,124,0.0,9.6,54,0.00,,,0.00,VWS V14.00,2013-01-11 17:50:00,
2013-01-11 12:56:00,39.2,24.1,30.20,SE,124,0.0,9.6,54,0.00,,,0.00,VWS V14.00,2013-01-11 17:56:00,
2013-01-11 13:02:00,39.2,24.0,30.19,SE,124,0.0,9.6,54,0.00,,,0.00,VWS V14.00,2013-01-11 18:02:00,
2013-01-11 13:08:00,38.8,23.8,30.19,SE,124,0.0,9.6,54,0.00,,,0.00,VWS V14.00,2013-01-11 18:08:00,
2013-01-11 13:14:00,38.6,23.1,30.18,SE,124,0.0,9.6,53,0.00,,,0.00,VWS V14.00,2013-01-11 18:14:00,
2013-01-11 13:20:00,38.9,23.0,30.19,ESE,111,0.0,9.6,52,0.00,,,0.00,VWS V14.00,2013-01-11 18:20:00,
2013-01-11 13:26:00,38.7,22.0,30.18,ESE,111,0.0,9.6,51,0.00,,,0.00,VWS V14.00,2013-01-11 18:26:00,
2013-01-11 13:32:00,38.7,21.7,30.18,ESE,111,0.0,9.6,50,0.00,,,0.00,VWS V14.00,2013-01-11 18:32:00,
2013-01-11 13:38:00,38.7,22.2,30.17,ESE,111,0.0,9.6,51,0.00,,,0.00,VWS V14.00,2013-01-11 18:38:00,
2013-01-11 13:44:00,38.7,21.8,30.18,ESE,111,0.0,9.6,50,0.00,,,0.00,VWS V14.00,2013-01-11 18:44:00,
2013-01-11 13:50:00,38.7,21.5,30.19,ESE,111,0.0,9.6,50,0.00,,,0.00,VWS V14.00,2013-01-11 18:50:00,
2013-01-11 13:56:00,38.6,21.6,30.18,ESE,111,0.0,9.6,50,0.00,,,0.00,VWS V14.00,2013-01-11 18:56:00,
2013-01-11 14:02:00,38.6,22.2,30.18,ESE,111,0.0,9.6,51,0.00,,,0.00,VWS V14.00,2013-01-11 19:02:00,
2013-01-11 14:08:00,38.6,22.2,30.16,ESE,111,0.0,9.6,51,0.00,,,0.00,VWS V14.00,2013-01-11 19:08:00,
2013-01-11 14:14:00,38.6,21.7,30.16,ESE,111,0.0,9.6,50,0.00,,,0.00,VWS V14.00,2013-01-11 19:14:00,
2013-01-11 14:20:00,38.6,21.3,30.16,ESE,111,0.0,9.6,49,0.00,,,0.00,VWS V14.00,2013-01-11 19:20:00,
2013-01-11 14:26:00,38.6,21.4,30.16,ESE,111,0.0,9.6,50,0.00,,,0.00,VWS V14.00,2013-01-11 19:26:00,
2013-01-11 14:32:00,38.6,21.6,30.15,ESE,111,0.0,9.6,50,0.00,,,0.00,VWS V14.00,2013-01-11 19:32:00,
2013-01-11 14:38:00,38.4,21.9,30.15,ESE,111,0.0,9.6,51,0.00,,,0.00,VWS V14.00,2013-01-11 19:38:00,
2013-01-11 14:44:00,38.2,22.1,30.15,ESE,111,0.0,9.6,52,0.00,,,0.00,VWS V14.00,2013-01-11 19:44:00,
2013-01-11 14:50:00,38.1,22.4,30.15,NE,48,0.0,9.6,53,0.00,,,0.00,VWS V14.00,2013-01-11 19:50:00,
2013-01-11 14:56:00,38.1,22.0,30.14,SE,139,0.0,9.7,52,0.00,,,0.00,VWS V14.00,2013-01-11 19:56:00,
2013-01-11 15:02:00,38.0,21.6,30.14,ESE,115,6.4,9.7,51,0.00,,,0.00,VWS V14.00,2013-01-11 20:02:00,
2013-01-11 15:08:00,38.1,21.5,30.14,East,97,0.0,9.7,51,0.00,,,0.00,VWS V14.00,2013-01-11 20:08:00,
2013-01-11 15:14:00,38.0,20.8,30.15,East,97,0.0,9.7,50,0.00,,,0.00,VWS V14.00,2013-01-11 20:14:00,
2013-01-11 15:20:00,38.0,20.9,30.15,East,97,0.0,9.7,50,0.00,,,0.00,VWS V14.00,2013-01-11 20:20:00,
2013-01-11 15:26:00,37.8,20.8,30.16,East,97,0.0,9.7,50,0.00,,,0.00,VWS V14.00,2013-01-11 20:26:00,
2013-01-11 15:32:00,37.6,21.2,30.16,East,97,0.0,9.7,51,0.00,,,0.00,VWS V14.00,2013-01-11 20:32:00,
2013-01-11 15:38:00,37.3,22.0,30.16,East,97,0.0,9.7,54,0.00,,,0.00,VWS V14.00,2013-01-11 20:38:00,
2013-01-11 15:44:00,37.1,22.4,30.16,NNE,30,0.0,9.7,55,0.00,,,0.00,VWS V14.00,2013-01-11 20:44:00,
2013-01-11 15:50:00,36.9,22.9,30.16,NNE,20,0.0,9.7,56,0.00,,,0.00,VWS V14.00,2013-01-11 20:50:00,
2013-01-11 15:56:00,36.7,23.0,30.16,North,354,0.0,11.7,57,0.00,,,0.00,VWS V14.00,2013-01-11 20:56:00,
2013-01-11 16:02:00,36.6,23.4,30.15,East,86,5.4,11.7,58,0.00,,,0.00,VWS V14.00,2013-01-11 21:02:00,
2013-01-11 16:08:00,36.5,23.4,30.15,ENE,77,0.0,11.7,59,0.00,,,0.00,VWS V14.00,2013-01-11 21:08:00,
2013-01-11 16:14:00,36.4,23.9,30.15,NE,39,0.0,11.7,60,0.00,,,0.00,VWS V14.00,2013-01-11 21:14:00,
2013-01-11 16:20:00,36.2,24.6,30.14,NE,39,0.0,11.7,62,0.00,,,0.00,VWS V14.00,2013-01-11 21:20:00,
2013-01-11 16:26:00,36.0,24.9,30.14,East,101,3.0,11.7,64,0.00,,,0.00,VWS V14.00,2013-01-11 21:26:00,
2013-01-11 16:32:00,35.6,25.1,30.13,ESE,105,5.7,11.7,65,0.00,,,0.00,VWS V14.00,2013-01-11 21:32:00,
2013-01-11 16:38:00,35.5,25.5,30.13,East,100,0.0,11.7,67,0.00,,,0.00,VWS V14.00,2013-01-11 21:38:00,
2013-01-11 16:44:00,35.4,25.9,30.13,SE,136,0.0,11.7,68,0.00,,,0.00,VWS V14.00,2013-01-11 21:44:00,
2013-01-11 16:50:00,35.3,26.3,30.13,ESE,110,0.0,11.7,70,0.00,,,0.00,VWS V14.00,2013-01-11 21:50:00,
2013-01-11 16:56:00,35.2,27.0,30.13,South,172,0.0,11.7,72,0.00,,,0.00,VWS V14.00,2013-01-11 21:56:00,
2013-01-11 17:02:00,35.1,27.6,30.12,SSE,155,3.5,11.7,74,0.00,,,0.00,VWS V14.00,2013-01-11 22:02:00,
2013-01-11 17:08:00,34.9,28.2,30.12,ESE,118,0.0,11.7,76,0.00,,,0.00,VWS V14.00,2013-01-11 22:08:00,
2013-01-11 17:15:00,34.9,28.8,30.12,SE,124,0.0,11.7,78,0.00,,,0.00,VWS V14.00,2013-01-11 22:15:00,
2013-01-11 17:21:00,34.9,29.1,30.12,ESE,105,0.0,11.7,79,0.00,,,0.00,VWS V14.00,2013-01-11 22:21:00,
2013-01-11 17:27:00,35.0,29.3,30.11,SSE,153,0.0,11.7,80,0.00,,,0.00,VWS V14.00,2013-01-11 22:27:00,
2013-01-11 17:33:00,35.1,29.4,30.11,SSE,158,5.0,11.7,79,0.00,,,0.00,VWS V14.00,2013-01-11 22:33:00,
2013-01-11 17:39:00,35.1,29.4,30.10,SE,129,0.0,11.7,79,0.00,,,0.00,VWS V14.00,2013-01-11 22:39:00,
2013-01-11 17:45:00,35.2,29.7,30.10,East,86,4.2,11.7,80,0.00,,,0.00,VWS V14.00,2013-01-11 22:45:00,
2013-01-11 17:51:00,35.3,30.2,30.10,NE,35,0.0,11.7,82,0.00,,,0.00,VWS V14.00,2013-01-11 22:51:00,
2013-01-11 17:57:00,35.5,31.0,30.10,NE,35,0.0,11.7,83,0.00,,,0.00,VWS V14.00,2013-01-11 22:57:00,
2013-01-11 18:03:00,35.5,31.4,30.10,NE,35,0.0,11.7,85,0.00,,,0.00,VWS V14.00,2013-01-11 23:03:00,
2013-01-11 18:09:00,35.5,31.8,30.10,NE,35,0.0,11.7,86,0.00,,,0.00,VWS V14.00,2013-01-11 23:09:00,
2013-01-11 18:15:00,35.4,32.0,30.10,NE,35,0.0,11.7,87,0.00,,,0.00,VWS V14.00,2013-01-11 23:15:00,
2013-01-11 18:21:00,35.5,32.5,30.10,NE,35,0.0,11.7,88,0.00,,,0.00,VWS V14.00,2013-01-11 23:21:00,
2013-01-11 18:27:00,35.5,32.7,30.10,NE,35,0.0,11.7,90,0.00,,,0.00,VWS V14.00,2013-01-11 23:27:00,
2013-01-11 18:33:00,35.3,32.7,30.10,NE,35,0.0,11.7,90,0.00,,,0.00,VWS V14.00,2013-01-11 23:33:00,
2013-01-11 18:39:00,35.4,33.0,30.10,NE,35,0.0,11.7,91,0.00,,,0.00,VWS V14.00,2013-01-11 23:39:00,
2013-01-11 18:45:00,35.4,33.2,30.09,NE,35,0.0,11.7,92,0.00,,,0.00,VWS V14.00,2013-01-11 23:45:00,
2013-01-11 18:51:00,35.5,33.4,30.09,South,176,8.4,11.7,92,0.00,,,0.00,VWS V14.00,2013-01-11 23:51:00,
2013-01-11 18:57:00,35.5,33.5,30.08,ENE,70,0.0,11.7,92,0.00,,,0.00,VWS V14.00,2013-01-11 23:57:00,
2013-01-11 19:03:00,35.8,33.8,30.08,East,97,0.0,11.7,92,0.00,,,0.00,VWS V14.00,2013-01-12 00:03:00,
2013-01-11 19:09:00,35.8,33.8,30.08,ENE,73,0.0,11.7,92,0.00,,,0.00,VWS V14.00,2013-01-12 00:09:00,
2013-01-11 19:15:00,35.8,33.8,30.07,East,100,0.0,11.7,92,0.00,,,0.00,VWS V14.00,2013-01-12 00:15:00,
2013-01-11 19:21:00,35.8,33.8,30.07,SE,139,10.3,11.7,92,0.00,,,0.00,VWS V14.00,2013-01-12 00:21:00,
2013-01-11 19:27:00,35.9,33.9,30.07,SSE,152,0.0,12.4,92,0.00,,,0.00,VWS V14.00,2013-01-12 00:27:00,
2013-01-11 19:33:00,36.1,34.1,30.07,ENE,75,0.0,15.0,92,0.00,,,0.00,VWS V14.00,2013-01-12 00:33:00,
2013-01-11 19:39:00,36.2,34.2,30.07,East,101,0.0,15.0,92,0.00,,,0.00,VWS V14.00,2013-01-12 00:39:00,
2013-01-11 19:45:00,36.2,34.2,30.07,East,101,0.0,15.0,92,0.00,,,0.00,VWS V14.00,2013-01-12 00:45:00,
2013-01-11 19:51:00,36.2,34.2,30.07,SSE,165,5.8,15.0,92,0.00,,,0.00,VWS V14.00,2013-01-12 00:51:00,
2013-01-11 19:57:00,36.2,34.3,30.07,East,82,0.0,15.0,93,0.00,,,0.00,VWS V14.00,2013-01-12 00:57:00,
2013-01-11 20:03:00,36.3,34.5,30.07,East,87,0.0,15.0,93,0.00,,,0.00,VWS V14.00,2013-01-12 01:03:00,
2013-01-11 20:09:00,36.5,34.7,30.07,SSE,156,0.0,15.0,93,0.00,,,0.00,VWS V14.00,2013-01-12 01:09:00,
2013-01-11 20:15:00,36.6,34.7,30.07,South,184,0.0,15.0,93,0.00,,,0.00,VWS V14.00,2013-01-12 01:15:00,
2013-01-11 20:21:00,36.6,34.7,30.07,ENE,65,1.9,15.0,93,0.00,,,0.00,VWS V14.00,2013-01-12 01:21:00,
2013-01-11 20:27:00,36.6,34.8,30.07,ESE,114,0.0,15.0,93,0.00,,,0.00,VWS V14.00,2013-01-12 01:27:00,
2013-01-11 20:33:00,36.7,34.9,30.07,SE,124,5.3,15.0,93,0.00,,,0.00,VWS V14.00,2013-01-12 01:33:00,
2013-01-11 20:39:00,36.5,34.8,30.06,East,80,0.0,15.0,93,0.00,,,0.00,VWS V14.00,2013-01-12 01:39:00,
2013-01-11 20:45:00,36.4,34.7,30.06,East,97,0.0,15.0,94,0.00,,,0.00,VWS V14.00,2013-01-12 01:45:00,
2013-01-11 20:52:00,36.6,35.0,30.06,ENE,66,0.0,15.0,94,0.00,,,0.00,VWS V14.00,2013-01-12 01:52:00,
2013-01-11 20:58:00,36.5,35.0,30.06,ENE,75,0.0,15.0,94,0.00,,,0.00,VWS V14.00,2013-01-12 01:58:00,
2013-01-11 21:04:00,36.5,35.0,30.07,ENE,75,0.0,15.0,94,0.00,,,0.00,VWS V14.00,2013-01-12 02:04:00,
2013-01-11 21:10:00,36.5,35.0,30.07,ENE,75,0.0,15.0,94,0.00,,,0.00,VWS V14.00,2013-01-12 02:10:00,
2013-01-11 21:16:00,36.7,35.3,30.07,ENE,75,0.0,15.0,95,0.00,,,0.00,VWS V14.00,2013-01-12 02:16:00,
2013-01-11 21:22:00,36.6,35.2,30.07,ESE,114,0.0,15.0,94,0.00,,,0.00,VWS V14.00,2013-01-12 02:22:00,
2013-01-11 21:28:00,36.4,35.0,30.06,ESE,118,0.0,15.0,95,0.00,,,0.00,VWS V14.00,2013-01-12 02:28:00,
2013-01-11 21:34:00,36.3,35.0,30.07,SE,128,0.0,15.0,95,0.00,,,0.00,VWS V14.00,2013-01-12 02:34:00,
2013-01-11 21:40:00,36.7,35.4,30.07,SE,128,0.0,15.0,95,0.00,,,0.00,VWS V14.00,2013-01-12 02:40:00,
2013-01-11 21:46:00,36.6,35.3,30.07,SE,128,0.0,15.0,95,0.00,,,0.00,VWS V14.00,2013-01-12 02:46:00,
2013-01-11 21:52:00,36.7,35.4,30.07,SE,128,0.0,15.0,95,0.00,,,0.00,VWS V14.00,2013-01-12 02:52:00,
2013-01-11 21:58:00,36.8,35.5,30.07,SE,128,0.0,15.0,95,0.00,,,0.00,VWS V14.00,2013-01-12 02:58:00,
2013-01-11 22:04:00,36.6,35.4,30.07,SE,128,0.0,15.0,95,0.00,,,0.00,VWS V14.00,2013-01-12 03:04:00,
2013-01-11 22:10:00,36.8,35.6,30.07,SE,128,0.0,15.0,95,0.00,,,0.00,VWS V14.00,2013-01-12 03:10:00,
2013-01-11 22:16:00,36.6,35.4,30.07,SE,128,0.0,15.0,95,0.00,,,0.00,VWS V14.00,2013-01-12 03:16:00,
2013-01-11 22:22:00,36.6,35.5,30.07,SE,128,0.0,15.0,96,0.00,,,0.00,VWS V14.00,2013-01-12 03:22:00,
2013-01-11 22:28:00,36.5,35.5,30.07,SE,128,0.0,15.0,96,0.00,,,0.00,VWS V14.00,2013-01-12 03:28:00,
2013-01-11 22:34:00,36.4,35.5,30.06,SE,128,0.0,15.0,97,0.00,,,0.00,VWS V14.00,2013-01-12 03:34:00,
2013-01-11 22:40:00,36.2,35.3,30.06,SE,128,0.0,15.0,97,0.00,,,0.00,VWS V14.00,2013-01-12 03:40:00,
2013-01-11 22:46:00,36.1,35.3,30.06,East,90,0.0,15.0,97,0.00,,,0.00,VWS V14.00,2013-01-12 03:46:00,
2013-01-11 22:52:00,36.2,35.5,30.05,East,90,0.0,15.0,97,0.00,,,0.00,VWS V14.00,2013-01-12 03:52:00,
2013-01-11 22:58:00,36.1,35.5,30.04,East,90,0.0,15.0,98,0.00,,,0.00,VWS V14.00,2013-01-12 03:58:00,
2013-01-11 23:04:00,36.3,35.8,30.04,ESE,117,0.0,15.0,98,0.00,,,0.00,VWS V14.00,2013-01-12 04:04:00,
2013-01-11 23:10:00,36.3,35.9,30.04,ESE,117,0.0,15.0,98,0.00,,,0.00,VWS V14.00,2013-01-12 04:10:00,
2013-01-11 23:16:00,36.5,36.1,30.04,ESE,117,0.0,15.0,99,0.00,,,0.00,VWS V14.00,2013-01-12 04:16:00,
2013-01-11 23:22:00,36.7,36.3,30.04,ESE,117,0.0,15.0,99,0.00,,,0.00,VWS V14.00,2013-01-12 04:22:00,
2013-01-11 23:28:00,36.7,36.3,30.04,ESE,117,0.0,15.0,98,0.00,,,0.00,VWS V14.00,2013-01-12 04:28:00,
2013-01-11 23:34:00,36.9,36.5,30.04,ESE,117,0.0,15.0,98,0.00,,,0.00,VWS V14.00,2013-01-12 04:34:00,
2013-01-11 23:40:00,36.9,36.5,30.04,ESE,117,0.0,15.0,98,0.00,,,0.00,VWS V14.00,2013-01-12 04:40:00,
2013-01-11 23:46:00,36.8,36.3,30.04,SSE,162,0.0,15.0,98,0.00,,,0.00,VWS V14.00,2013-01-12 04:46:00,
2013-01-11 23:50:00,26.9,23.8,30.47,SE,145,0.0,19.9,88,0.00,,,0.00,VWS V14.00,2013-01-12 04:50:00,
2013-01-11 23:52:00,36.8,36.3,30.04,SSE,162,0.0,0.0,98,0.00,,,0.00,VWS V14.00,2013-01-12 04:52:00,
2013-01-11 23:58:00,36.8,36.4,30.04,SSE,162,0.0,0.0,98,0.00,,,0.00,VWS V14.00,2013-01-12 04:58:00,